sensor_id;sensor_type;location;lat;lon;timestamp;temperature;humidity
15596;DHT22;7898;48.658;9.068;2023-05-10T00:01:32;13.30;99.90
15596;DHT22;7898;48.658;9.068;2023-05-10T00:03:59;13.30;99.90
15596;DHT22;7898;48.658;9.068;2023-05-10T00:06:26;13.40;99.90
15596;DHT22;7898;48.658;9.068;2023-05-10T00:08:54;13.30;99.90
15596;DHT22;7898;48.658;9.068;2023-05-10T00:11:21;13.30;99.90
15596;DHT22;7898;48.658;9.068;2023-05-10T00:13:48;13.30;99.90
15596;DHT22;7898;48.658;9.068;2023-05-10T00:16:15;13.20;99.90
15596;DHT22;7898;48.658;9.068;2023-05-10T00:18:41;13.10;99.90
15596;DHT22;7898;48.658;9.068;2023-05-10T00:21:08;13.10;99.90
15596;DHT22;7898;48.658;9.068;2023-05-10T00:23:35;13.10;99.90
15596;DHT22;7898;48.658;9.068;2023-05-10T00:26:04;13.00;99.90
15596;DHT22;7898;48.658;9.068;2023-05-10T00:28:31;13.00;99.90
15596;DHT22;7898;48.658;9.068;2023-05-10T00:30:58;13.00;99.90
15596;DHT22;7898;48.658;9.068;2023-05-10T00:33:24;13.00;99.90
15596;DHT22;7898;48.658;9.068;2023-05-10T00:35:51;13.10;99.90
15596;DHT22;7898;48.658;9.068;2023-05-10T00:38:18;13.10;99.90
15596;DHT22;7898;48.658;9.068;2023-05-10T00:40:45;13.00;99.90
15596;DHT22;7898;48.658;9.068;2023-05-10T00:43:13;13.00;99.90
15596;DHT22;7898;48.658;9.068;2023-05-10T00:45:41;13.00;99.90
15596;DHT22;7898;48.658;9.068;2023-05-10T00:48:08;12.90;99.90
15596;DHT22;7898;48.658;9.068;2023-05-10T00:50:35;12.90;99.90
15596;DHT22;7898;48.658;9.068;2023-05-10T00:53:02;12.90;99.90
15596;DHT22;7898;48.658;9.068;2023-05-10T00:55:30;12.90;99.90
15596;DHT22;7898;48.658;9.068;2023-05-10T00:57:57;12.90;99.90
15596;DHT22;7898;48.658;9.068;2023-05-10T01:00:25;12.90;99.90
15596;DHT22;7898;48.658;9.068;2023-05-10T01:02:53;12.90;99.90
15596;DHT22;7898;48.658;9.068;2023-05-10T01:05:20;12.90;99.90
15596;DHT22;7898;48.658;9.068;2023-05-10T01:07:47;12.90;99.90
15596;DHT22;7898;48.658;9.068;2023-05-10T01:10:14;12.90;99.90
15596;DHT22;7898;48.658;9.068;2023-05-10T01:12:43;12.90;99.90
15596;DHT22;7898;48.658;9.068;2023-05-10T01:15:12;12.90;99.90
15596;DHT22;7898;48.658;9.068;2023-05-10T01:17:44;12.80;99.90
15596;DHT22;7898;48.658;9.068;2023-05-10T01:20:13;12.80;99.90
15596;DHT22;7898;48.658;9.068;2023-05-10T01:23:09;12.80;99.90
15596;DHT22;7898;48.658;9.068;2023-05-10T01:25:54;12.80;99.90
15596;DHT22;7898;48.658;9.068;2023-05-10T01:28:47;12.70;99.90
15596;DHT22;7898;48.658;9.068;2023-05-10T01:31:35;12.70;99.90
15596;DHT22;7898;48.658;9.068;2023-05-10T01:34:12;12.60;99.90
15596;DHT22;7898;48.658;9.068;2023-05-10T01:36:45;12.70;99.90
15596;DHT22;7898;48.658;9.068;2023-05-10T01:39:19;12.60;99.90
15596;DHT22;7898;48.658;9.068;2023-05-10T01:41:51;12.60;99.90
15596;DHT22;7898;48.658;9.068;2023-05-10T01:44:27;12.50;99.90
15596;DHT22;7898;48.658;9.068;2023-05-10T01:47:01;12.60;99.90
15596;DHT22;7898;48.658;9.068;2023-05-10T01:49:34;12.50;99.90
15596;DHT22;7898;48.658;9.068;2023-05-10T01:52:07;12.50;99.90
15596;DHT22;7898;48.658;9.068;2023-05-10T01:54:35;12.40;99.90
15596;DHT22;7898;48.658;9.068;2023-05-10T01:57:06;12.40;99.90
15596;DHT22;7898;48.658;9.068;2023-05-10T01:59:36;12.40;99.90
15596;DHT22;7898;48.658;9.068;2023-05-10T02:02:07;12.40;99.90
15596;DHT22;7898;48.658;9.068;2023-05-10T02:04:39;12.50;99.90
15596;DHT22;7898;48.658;9.068;2023-05-10T02:07:07;12.50;99.90
15596;DHT22;7898;48.658;9.068;2023-05-10T02:09:35;12.40;99.90
15596;DHT22;7898;48.658;9.068;2023-05-10T02:12:04;12.40;99.90
15596;DHT22;7898;48.658;9.068;2023-05-10T02:14:35;12.30;99.90
15596;DHT22;7898;48.658;9.068;2023-05-10T02:17:02;12.20;99.90
15596;DHT22;7898;48.658;9.068;2023-05-10T02:19:31;12.20;99.90
15596;DHT22;7898;48.658;9.068;2023-05-10T02:22:01;12.20;99.90
15596;DHT22;7898;48.658;9.068;2023-05-10T02:24:28;12.10;99.90
15596;DHT22;7898;48.658;9.068;2023-05-10T02:26:56;12.10;99.90
15596;DHT22;7898;48.658;9.068;2023-05-10T02:29:25;12.10;99.90
15596;DHT22;7898;48.658;9.068;2023-05-10T02:31:54;12.20;99.90
15596;DHT22;7898;48.658;9.068;2023-05-10T02:34:23;12.20;99.90
15596;DHT22;7898;48.658;9.068;2023-05-10T02:36:52;12.10;99.90
15596;DHT22;7898;48.658;9.068;2023-05-10T02:39:21;12.20;99.90
15596;DHT22;7898;48.658;9.068;2023-05-10T02:41:50;12.20;99.90
15596;DHT22;7898;48.658;9.068;2023-05-10T02:44:19;12.10;99.90
15596;DHT22;7898;48.658;9.068;2023-05-10T02:46:46;12.10;99.90
15596;DHT22;7898;48.658;9.068;2023-05-10T02:49:14;12.10;99.90
15596;DHT22;7898;48.658;9.068;2023-05-10T02:51:43;12.10;99.90
15596;DHT22;7898;48.658;9.068;2023-05-10T02:54:13;12.10;99.90
15596;DHT22;7898;48.658;9.068;2023-05-10T02:56:47;12.10;99.90
15596;DHT22;7898;48.658;9.068;2023-05-10T02:59:16;12.10;99.90
15596;DHT22;7898;48.658;9.068;2023-05-10T03:01:43;12.10;99.90
15596;DHT22;7898;48.658;9.068;2023-05-10T03:04:10;12.10;99.90
15596;DHT22;7898;48.658;9.068;2023-05-10T03:06:37;12.10;99.90
15596;DHT22;7898;48.658;9.068;2023-05-10T03:09:04;12.10;99.90
15596;DHT22;7898;48.658;9.068;2023-05-10T03:11:43;12.00;99.90
15596;DHT22;7898;48.658;9.068;2023-05-10T03:14:23;12.00;99.90
15596;DHT22;7898;48.658;9.068;2023-05-10T03:16:58;12.00;99.90
15596;DHT22;7898;48.658;9.068;2023-05-10T03:19:32;12.00;99.90
15596;DHT22;7898;48.658;9.068;2023-05-10T03:22:06;12.00;99.90
15596;DHT22;7898;48.658;9.068;2023-05-10T03:24:36;12.00;99.90
15596;DHT22;7898;48.658;9.068;2023-05-10T03:27:03;12.00;99.90
15596;DHT22;7898;48.658;9.068;2023-05-10T03:29:33;12.00;99.90
15596;DHT22;7898;48.658;9.068;2023-05-10T03:32:00;12.00;99.90
15596;DHT22;7898;48.658;9.068;2023-05-10T03:34:30;12.00;99.90
15596;DHT22;7898;48.658;9.068;2023-05-10T03:36:57;12.00;99.90
15596;DHT22;7898;48.658;9.068;2023-05-10T03:39:24;12.00;99.90
15596;DHT22;7898;48.658;9.068;2023-05-10T03:41:51;11.90;99.90
15596;DHT22;7898;48.658;9.068;2023-05-10T03:44:18;12.00;99.90
15596;DHT22;7898;48.658;9.068;2023-05-10T03:46:46;12.00;99.90
15596;DHT22;7898;48.658;9.068;2023-05-10T03:49:13;12.00;99.90
15596;DHT22;7898;48.658;9.068;2023-05-10T03:51:39;12.00;99.90
15596;DHT22;7898;48.658;9.068;2023-05-10T03:54:06;12.00;99.90
15596;DHT22;7898;48.658;9.068;2023-05-10T03:56:33;12.00;99.90
15596;DHT22;7898;48.658;9.068;2023-05-10T03:59:00;11.90;99.90
15596;DHT22;7898;48.658;9.068;2023-05-10T04:01:27;11.80;99.90
15596;DHT22;7898;48.658;9.068;2023-05-10T04:03:55;11.90;99.90
15596;DHT22;7898;48.658;9.068;2023-05-10T04:06:22;11.80;99.90
15596;DHT22;7898;48.658;9.068;2023-05-10T04:08:49;11.80;99.90
15596;DHT22;7898;48.658;9.068;2023-05-10T04:11:15;11.80;99.90
15596;DHT22;7898;48.658;9.068;2023-05-10T04:13:42;11.80;99.90
15596;DHT22;7898;48.658;9.068;2023-05-10T04:16:09;11.80;99.90
15596;DHT22;7898;48.658;9.068;2023-05-10T04:18:36;11.70;99.90
15596;DHT22;7898;48.658;9.068;2023-05-10T04:21:10;11.70;99.90
15596;DHT22;7898;48.658;9.068;2023-05-10T04:23:37;11.70;99.90
15596;DHT22;7898;48.658;9.068;2023-05-10T04:26:04;11.80;99.90
15596;DHT22;7898;48.658;9.068;2023-05-10T04:28:31;11.80;99.90
15596;DHT22;7898;48.658;9.068;2023-05-10T04:31:02;11.80;99.90
15596;DHT22;7898;48.658;9.068;2023-05-10T04:33:29;11.80;99.90
15596;DHT22;7898;48.658;9.068;2023-05-10T04:35:56;11.80;99.90
15596;DHT22;7898;48.658;9.068;2023-05-10T04:38:24;11.80;99.90
15596;DHT22;7898;48.658;9.068;2023-05-10T04:40:51;11.80;99.90
15596;DHT22;7898;48.658;9.068;2023-05-10T04:43:18;11.70;99.90
15596;DHT22;7898;48.658;9.068;2023-05-10T04:45:45;11.80;99.90
15596;DHT22;7898;48.658;9.068;2023-05-10T04:48:12;11.80;99.90
15596;DHT22;7898;48.658;9.068;2023-05-10T04:50:39;11.80;99.90
15596;DHT22;7898;48.658;9.068;2023-05-10T04:53:06;11.80;99.90
15596;DHT22;7898;48.658;9.068;2023-05-10T04:55:34;11.90;99.90
15596;DHT22;7898;48.658;9.068;2023-05-10T04:58:02;12.00;99.90
15596;DHT22;7898;48.658;9.068;2023-05-10T05:00:29;12.00;99.90
15596;DHT22;7898;48.658;9.068;2023-05-10T05:02:56;12.10;99.90
15596;DHT22;7898;48.658;9.068;2023-05-10T05:05:23;12.10;99.90
15596;DHT22;7898;48.658;9.068;2023-05-10T05:07:49;12.10;99.90
15596;DHT22;7898;48.658;9.068;2023-05-10T05:10:16;12.20;99.90
15596;DHT22;7898;48.658;9.068;2023-05-10T05:12:45;12.30;99.90
15596;DHT22;7898;48.658;9.068;2023-05-10T05:15:11;12.30;99.90
15596;DHT22;7898;48.658;9.068;2023-05-10T05:17:38;12.30;99.90
15596;DHT22;7898;48.658;9.068;2023-05-10T05:20:06;12.40;99.90
15596;DHT22;7898;48.658;9.068;2023-05-10T05:22:35;12.40;99.90
15596;DHT22;7898;48.658;9.068;2023-05-10T05:25:02;12.40;99.90
15596;DHT22;7898;48.658;9.068;2023-05-10T05:27:29;12.50;99.90
15596;DHT22;7898;48.658;9.068;2023-05-10T05:29:58;12.50;99.90
15596;DHT22;7898;48.658;9.068;2023-05-10T05:32:25;12.50;99.90
15596;DHT22;7898;48.658;9.068;2023-05-10T05:34:52;12.50;99.90
15596;DHT22;7898;48.658;9.068;2023-05-10T05:37:20;12.50;99.90
15596;DHT22;7898;48.658;9.068;2023-05-10T05:39:48;12.50;99.90
15596;DHT22;7898;48.658;9.068;2023-05-10T05:42:15;12.60;99.90
15596;DHT22;7898;48.658;9.068;2023-05-10T05:44:44;12.60;99.90
15596;DHT22;7898;48.658;9.068;2023-05-10T05:47:12;12.60;99.90
15596;DHT22;7898;48.658;9.068;2023-05-10T05:49:39;12.50;99.90
15596;DHT22;7898;48.658;9.068;2023-05-10T05:52:06;12.50;99.90
15596;DHT22;7898;48.658;9.068;2023-05-10T05:54:33;12.60;99.90
15596;DHT22;7898;48.658;9.068;2023-05-10T05:57:00;12.70;99.90
15596;DHT22;7898;48.658;9.068;2023-05-10T05:59:27;12.70;99.90
15596;DHT22;7898;48.658;9.068;2023-05-10T06:01:54;12.80;99.90
15596;DHT22;7898;48.658;9.068;2023-05-10T06:04:22;12.80;99.90
15596;DHT22;7898;48.658;9.068;2023-05-10T06:06:49;12.80;99.90
15596;DHT22;7898;48.658;9.068;2023-05-10T06:09:16;12.90;99.90
15596;DHT22;7898;48.658;9.068;2023-05-10T06:11:43;12.80;99.90
15596;DHT22;7898;48.658;9.068;2023-05-10T06:14:10;12.90;99.90
15596;DHT22;7898;48.658;9.068;2023-05-10T06:16:37;12.90;99.90
15596;DHT22;7898;48.658;9.068;2023-05-10T06:19:04;12.90;99.90
15596;DHT22;7898;48.658;9.068;2023-05-10T06:21:32;12.90;99.90
15596;DHT22;7898;48.658;9.068;2023-05-10T06:23:59;12.90;99.90
15596;DHT22;7898;48.658;9.068;2023-05-10T06:26:26;12.90;99.90
15596;DHT22;7898;48.658;9.068;2023-05-10T06:28:53;12.90;99.90
15596;DHT22;7898;48.658;9.068;2023-05-10T06:31:19;13.00;99.90
15596;DHT22;7898;48.658;9.068;2023-05-10T06:33:46;13.00;99.90
15596;DHT22;7898;48.658;9.068;2023-05-10T06:36:13;13.10;99.90
15596;DHT22;7898;48.658;9.068;2023-05-10T06:38:41;13.10;99.90
15596;DHT22;7898;48.658;9.068;2023-05-10T06:41:08;13.20;99.90
15596;DHT22;7898;48.658;9.068;2023-05-10T06:43:35;13.30;99.90
15596;DHT22;7898;48.658;9.068;2023-05-10T06:46:05;13.30;99.90
15596;DHT22;7898;48.658;9.068;2023-05-10T06:48:33;13.30;99.90
15596;DHT22;7898;48.658;9.068;2023-05-10T06:51:00;13.40;99.90
15596;DHT22;7898;48.658;9.068;2023-05-10T06:53:27;13.40;99.90
15596;DHT22;7898;48.658;9.068;2023-05-10T06:55:55;13.40;99.90
15596;DHT22;7898;48.658;9.068;2023-05-10T06:58:22;13.50;99.90
15596;DHT22;7898;48.658;9.068;2023-05-10T07:00:49;13.60;99.90
15596;DHT22;7898;48.658;9.068;2023-05-10T07:03:15;13.70;99.90
15596;DHT22;7898;48.658;9.068;2023-05-10T07:05:42;13.70;99.90
15596;DHT22;7898;48.658;9.068;2023-05-10T07:08:10;13.80;99.90
15596;DHT22;7898;48.658;9.068;2023-05-10T07:10:38;13.70;99.90
15596;DHT22;7898;48.658;9.068;2023-05-10T07:13:07;13.80;99.90
15596;DHT22;7898;48.658;9.068;2023-05-10T07:15:33;13.90;99.90
15596;DHT22;7898;48.658;9.068;2023-05-10T07:18:00;14.00;99.90
15596;DHT22;7898;48.658;9.068;2023-05-10T07:20:27;14.00;99.90
15596;DHT22;7898;48.658;9.068;2023-05-10T07:22:54;14.10;99.90
15596;DHT22;7898;48.658;9.068;2023-05-10T07:25:21;14.10;99.90
15596;DHT22;7898;48.658;9.068;2023-05-10T07:27:48;14.10;99.90
15596;DHT22;7898;48.658;9.068;2023-05-10T07:30:16;14.10;99.90
15596;DHT22;7898;48.658;9.068;2023-05-10T07:32:43;14.10;99.90
15596;DHT22;7898;48.658;9.068;2023-05-10T07:35:10;14.20;99.90
15596;DHT22;7898;48.658;9.068;2023-05-10T07:37:37;14.20;99.90
15596;DHT22;7898;48.658;9.068;2023-05-10T07:40:05;14.10;99.90
15596;DHT22;7898;48.658;9.068;2023-05-10T07:42:32;14.20;99.90
15596;DHT22;7898;48.658;9.068;2023-05-10T07:44:59;14.20;99.90
15596;DHT22;7898;48.658;9.068;2023-05-10T07:47:27;14.10;99.90
15596;DHT22;7898;48.658;9.068;2023-05-10T07:49:54;14.10;99.90
15596;DHT22;7898;48.658;9.068;2023-05-10T07:52:21;14.10;99.90
15596;DHT22;7898;48.658;9.068;2023-05-10T07:54:48;14.10;99.90
15596;DHT22;7898;48.658;9.068;2023-05-10T07:57:15;14.20;99.90
15596;DHT22;7898;48.658;9.068;2023-05-10T07:59:43;14.20;99.90
15596;DHT22;7898;48.658;9.068;2023-05-10T08:02:10;14.20;99.90
15596;DHT22;7898;48.658;9.068;2023-05-10T08:04:39;14.30;99.90
15596;DHT22;7898;48.658;9.068;2023-05-10T08:07:05;14.40;99.90
15596;DHT22;7898;48.658;9.068;2023-05-10T08:09:32;14.40;99.90
15596;DHT22;7898;48.658;9.068;2023-05-10T08:11:59;14.50;99.90
15596;DHT22;7898;48.658;9.068;2023-05-10T08:14:28;14.50;99.90
15596;DHT22;7898;48.658;9.068;2023-05-10T08:16:55;14.60;99.90
15596;DHT22;7898;48.658;9.068;2023-05-10T08:19:22;14.70;99.90
15596;DHT22;7898;48.658;9.068;2023-05-10T08:21:50;14.70;99.90
15596;DHT22;7898;48.658;9.068;2023-05-10T08:24:18;14.80;99.90
15596;DHT22;7898;48.658;9.068;2023-05-10T08:26:45;14.90;99.90
15596;DHT22;7898;48.658;9.068;2023-05-10T08:29:13;14.80;99.90
15596;DHT22;7898;48.658;9.068;2023-05-10T08:31:40;14.70;99.90
15596;DHT22;7898;48.658;9.068;2023-05-10T08:34:07;14.50;99.90
15596;DHT22;7898;48.658;9.068;2023-05-10T08:36:34;14.60;99.90
15596;DHT22;7898;48.658;9.068;2023-05-10T08:39:03;14.60;99.90
15596;DHT22;7898;48.658;9.068;2023-05-10T08:41:31;14.50;99.90
15596;DHT22;7898;48.658;9.068;2023-05-10T08:43:59;14.50;99.90
15596;DHT22;7898;48.658;9.068;2023-05-10T08:46:31;14.50;99.90
15596;DHT22;7898;48.658;9.068;2023-05-10T08:49:02;14.70;99.90
15596;DHT22;7898;48.658;9.068;2023-05-10T08:51:31;14.80;99.90
15596;DHT22;7898;48.658;9.068;2023-05-10T08:54:04;14.70;99.90
15596;DHT22;7898;48.658;9.068;2023-05-10T08:56:31;14.60;99.90
15596;DHT22;7898;48.658;9.068;2023-05-10T08:58:58;14.60;99.90
15596;DHT22;7898;48.658;9.068;2023-05-10T09:01:25;14.60;99.90
15596;DHT22;7898;48.658;9.068;2023-05-10T09:03:53;14.60;99.90
15596;DHT22;7898;48.658;9.068;2023-05-10T09:06:21;14.50;99.90
15596;DHT22;7898;48.658;9.068;2023-05-10T09:08:48;14.60;99.90
15596;DHT22;7898;48.658;9.068;2023-05-10T09:11:16;14.70;99.90
15596;DHT22;7898;48.658;9.068;2023-05-10T09:13:44;14.60;99.90
15596;DHT22;7898;48.658;9.068;2023-05-10T09:16:11;14.70;99.90
15596;DHT22;7898;48.658;9.068;2023-05-10T09:18:38;14.80;99.90
15596;DHT22;7898;48.658;9.068;2023-05-10T09:21:05;14.80;99.90
15596;DHT22;7898;48.658;9.068;2023-05-10T09:23:32;14.80;99.90
15596;DHT22;7898;48.658;9.068;2023-05-10T09:26:02;14.90;99.90
15596;DHT22;7898;48.658;9.068;2023-05-10T09:28:33;14.90;99.90
15596;DHT22;7898;48.658;9.068;2023-05-10T09:31:00;14.90;99.90
15596;DHT22;7898;48.658;9.068;2023-05-10T09:33:27;14.80;99.90
15596;DHT22;7898;48.658;9.068;2023-05-10T09:35:54;14.90;99.90
15596;DHT22;7898;48.658;9.068;2023-05-10T09:38:20;14.90;99.90
15596;DHT22;7898;48.658;9.068;2023-05-10T09:40:51;15.10;99.90
15596;DHT22;7898;48.658;9.068;2023-05-10T09:43:21;15.20;99.90
15596;DHT22;7898;48.658;9.068;2023-05-10T09:45:50;15.40;99.90
15596;DHT22;7898;48.658;9.068;2023-05-10T09:48:18;15.50;99.90
15596;DHT22;7898;48.658;9.068;2023-05-10T09:50:56;15.60;99.90
15596;DHT22;7898;48.658;9.068;2023-05-10T09:53:23;15.80;99.90
15596;DHT22;7898;48.658;9.068;2023-05-10T09:55:50;16.00;99.90
15596;DHT22;7898;48.658;9.068;2023-05-10T09:58:17;16.10;99.90
15596;DHT22;7898;48.658;9.068;2023-05-10T10:00:45;16.20;99.90
15596;DHT22;7898;48.658;9.068;2023-05-10T10:03:19;16.30;99.90
15596;DHT22;7898;48.658;9.068;2023-05-10T10:05:47;16.30;99.90
15596;DHT22;7898;48.658;9.068;2023-05-10T10:08:15;16.50;99.90
15596;DHT22;7898;48.658;9.068;2023-05-10T10:10:42;16.60;99.90
15596;DHT22;7898;48.658;9.068;2023-05-10T10:13:10;16.70;99.90
15596;DHT22;7898;48.658;9.068;2023-05-10T10:15:37;16.80;99.90
15596;DHT22;7898;48.658;9.068;2023-05-10T10:18:05;16.90;99.90
15596;DHT22;7898;48.658;9.068;2023-05-10T10:20:33;16.90;99.90
15596;DHT22;7898;48.658;9.068;2023-05-10T10:23:00;16.90;99.90
15596;DHT22;7898;48.658;9.068;2023-05-10T10:25:27;16.90;99.90
15596;DHT22;7898;48.658;9.068;2023-05-10T10:28:07;17.10;99.90
15596;DHT22;7898;48.658;9.068;2023-05-10T10:30:39;17.30;99.90
15596;DHT22;7898;48.658;9.068;2023-05-10T10:36:08;17.40;99.90
15596;DHT22;7898;48.658;9.068;2023-05-10T10:38:37;17.40;99.90
15596;DHT22;7898;48.658;9.068;2023-05-10T10:41:10;17.40;99.90
15596;DHT22;7898;48.658;9.068;2023-05-10T10:43:37;17.40;99.90
15596;DHT22;7898;48.658;9.068;2023-05-10T10:46:12;17.50;99.90
15596;DHT22;7898;48.658;9.068;2023-05-10T10:48:40;17.50;99.90
15596;DHT22;7898;48.658;9.068;2023-05-10T10:51:09;17.30;99.90
15596;DHT22;7898;48.658;9.068;2023-05-10T10:53:37;16.90;99.90
15596;DHT22;7898;48.658;9.068;2023-05-10T10:56:08;16.40;99.90
15596;DHT22;7898;48.658;9.068;2023-05-10T10:58:37;15.90;99.90
15596;DHT22;7898;48.658;9.068;2023-05-10T11:01:12;15.50;99.90
15596;DHT22;7898;48.658;9.068;2023-05-10T11:03:39;15.10;99.90
15596;DHT22;7898;48.658;9.068;2023-05-10T11:06:06;14.80;99.90
15596;DHT22;7898;48.658;9.068;2023-05-10T11:08:42;14.50;99.90
15596;DHT22;7898;48.658;9.068;2023-05-10T11:11:09;14.30;99.90
15596;DHT22;7898;48.658;9.068;2023-05-10T11:13:42;14.10;99.90
15596;DHT22;7898;48.658;9.068;2023-05-10T11:16:17;14.00;99.90
15596;DHT22;7898;48.658;9.068;2023-05-10T11:19:09;14.00;99.90
15596;DHT22;7898;48.658;9.068;2023-05-10T11:21:45;14.10;99.90
15596;DHT22;7898;48.658;9.068;2023-05-10T11:24:15;14.10;99.90
15596;DHT22;7898;48.658;9.068;2023-05-10T11:26:42;14.00;99.90
15596;DHT22;7898;48.658;9.068;2023-05-10T11:29:09;14.00;99.90
15596;DHT22;7898;48.658;9.068;2023-05-10T11:31:42;13.90;99.90
15596;DHT22;7898;48.658;9.068;2023-05-10T11:34:09;14.00;99.90
15596;DHT22;7898;48.658;9.068;2023-05-10T11:36:36;14.10;99.90
15596;DHT22;7898;48.658;9.068;2023-05-10T11:39:04;14.20;99.90
15596;DHT22;7898;48.658;9.068;2023-05-10T11:41:32;14.40;99.90
15596;DHT22;7898;48.658;9.068;2023-05-10T11:43:59;14.60;99.90
15596;DHT22;7898;48.658;9.068;2023-05-10T11:46:27;14.60;99.90
15596;DHT22;7898;48.658;9.068;2023-05-10T11:48:59;14.70;99.90
15596;DHT22;7898;48.658;9.068;2023-05-10T11:51:32;14.80;99.90
15596;DHT22;7898;48.658;9.068;2023-05-10T11:53:59;15.00;99.90
15596;DHT22;7898;48.658;9.068;2023-05-10T11:56:26;15.20;99.90
15596;DHT22;7898;48.658;9.068;2023-05-10T11:58:55;15.30;99.90
15596;DHT22;7898;48.658;9.068;2023-05-10T12:01:23;15.20;99.90
15596;DHT22;7898;48.658;9.068;2023-05-10T12:03:52;15.30;99.90
15596;DHT22;7898;48.658;9.068;2023-05-10T12:06:20;15.60;99.90
15596;DHT22;7898;48.658;9.068;2023-05-10T12:08:48;15.90;99.90
15596;DHT22;7898;48.658;9.068;2023-05-10T12:11:18;16.10;99.90
15596;DHT22;7898;48.658;9.068;2023-05-10T12:13:46;16.30;99.90
15596;DHT22;7898;48.658;9.068;2023-05-10T12:16:16;16.50;99.90
15596;DHT22;7898;48.658;9.068;2023-05-10T12:18:43;16.40;99.90
15596;DHT22;7898;48.658;9.068;2023-05-10T12:21:10;16.30;99.90
15596;DHT22;7898;48.658;9.068;2023-05-10T12:23:38;16.30;99.90
15596;DHT22;7898;48.658;9.068;2023-05-10T12:26:06;16.30;99.90
15596;DHT22;7898;48.658;9.068;2023-05-10T12:28:35;16.30;99.90
15596;DHT22;7898;48.658;9.068;2023-05-10T12:31:02;16.00;99.90
15596;DHT22;7898;48.658;9.068;2023-05-10T12:33:37;15.90;99.90
15596;DHT22;7898;48.658;9.068;2023-05-10T12:36:07;15.60;99.90
15596;DHT22;7898;48.658;9.068;2023-05-10T12:38:36;15.40;99.90
15596;DHT22;7898;48.658;9.068;2023-05-10T12:41:04;15.20;99.90
15596;DHT22;7898;48.658;9.068;2023-05-10T12:43:32;15.30;99.90
15596;DHT22;7898;48.658;9.068;2023-05-10T12:46:04;15.40;99.90
15596;DHT22;7898;48.658;9.068;2023-05-10T12:48:36;15.60;99.90
15596;DHT22;7898;48.658;9.068;2023-05-10T12:51:04;15.80;99.90
15596;DHT22;7898;48.658;9.068;2023-05-10T12:53:34;16.30;99.90
15596;DHT22;7898;48.658;9.068;2023-05-10T12:56:01;16.10;99.90
15596;DHT22;7898;48.658;9.068;2023-05-10T12:58:28;16.10;99.90
15596;DHT22;7898;48.658;9.068;2023-05-10T13:00:55;15.90;99.90
15596;DHT22;7898;48.658;9.068;2023-05-10T13:03:22;15.90;99.90
15596;DHT22;7898;48.658;9.068;2023-05-10T13:05:50;15.80;99.90
15596;DHT22;7898;48.658;9.068;2023-05-10T13:08:17;15.70;99.90
15596;DHT22;7898;48.658;9.068;2023-05-10T13:10:44;15.70;99.90
15596;DHT22;7898;48.658;9.068;2023-05-10T13:13:11;15.80;99.90
15596;DHT22;7898;48.658;9.068;2023-05-10T13:15:38;15.80;99.90
15596;DHT22;7898;48.658;9.068;2023-05-10T13:18:05;15.70;99.90
15596;DHT22;7898;48.658;9.068;2023-05-10T13:20:32;15.60;99.90
15596;DHT22;7898;48.658;9.068;2023-05-10T13:23:00;15.50;99.90
15596;DHT22;7898;48.658;9.068;2023-05-10T13:25:28;15.40;99.90
15596;DHT22;7898;48.658;9.068;2023-05-10T13:27:55;15.50;99.90
15596;DHT22;7898;48.658;9.068;2023-05-10T13:30:22;15.70;99.90
15596;DHT22;7898;48.658;9.068;2023-05-10T13:32:49;15.80;99.90
15596;DHT22;7898;48.658;9.068;2023-05-10T13:35:16;15.90;99.90
15596;DHT22;7898;48.658;9.068;2023-05-10T13:37:43;16.00;99.90
15596;DHT22;7898;48.658;9.068;2023-05-10T13:40:11;16.10;99.90
15596;DHT22;7898;48.658;9.068;2023-05-10T13:42:39;16.00;99.90
15596;DHT22;7898;48.658;9.068;2023-05-10T13:45:06;16.20;99.90
15596;DHT22;7898;48.658;9.068;2023-05-10T13:47:33;16.30;99.90
15596;DHT22;7898;48.658;9.068;2023-05-10T13:50:00;16.50;99.90
15596;DHT22;7898;48.658;9.068;2023-05-10T13:52:29;16.60;99.90
15596;DHT22;7898;48.658;9.068;2023-05-10T13:54:56;16.70;99.90
15596;DHT22;7898;48.658;9.068;2023-05-10T13:57:24;16.80;99.90
15596;DHT22;7898;48.658;9.068;2023-05-10T13:59:51;16.80;99.90
15596;DHT22;7898;48.658;9.068;2023-05-10T14:02:18;16.80;99.90
15596;DHT22;7898;48.658;9.068;2023-05-10T14:04:47;16.80;99.90
15596;DHT22;7898;48.658;9.068;2023-05-10T14:07:14;16.70;99.90
15596;DHT22;7898;48.658;9.068;2023-05-10T14:09:40;16.50;99.90
15596;DHT22;7898;48.658;9.068;2023-05-10T14:12:07;16.30;99.90
15596;DHT22;7898;48.658;9.068;2023-05-10T14:14:36;16.20;99.90
15596;DHT22;7898;48.658;9.068;2023-05-10T14:17:02;16.10;99.90
15596;DHT22;7898;48.658;9.068;2023-05-10T14:19:29;16.20;99.90
15596;DHT22;7898;48.658;9.068;2023-05-10T14:21:58;16.30;99.90
15596;DHT22;7898;48.658;9.068;2023-05-10T14:24:25;16.40;99.90
15596;DHT22;7898;48.658;9.068;2023-05-10T14:26:51;16.30;99.90
15596;DHT22;7898;48.658;9.068;2023-05-10T14:29:19;16.40;99.90
15596;DHT22;7898;48.658;9.068;2023-05-10T14:31:47;16.30;99.90
15596;DHT22;7898;48.658;9.068;2023-05-10T14:34:14;16.30;99.90
15596;DHT22;7898;48.658;9.068;2023-05-10T14:36:41;16.40;99.90
15596;DHT22;7898;48.658;9.068;2023-05-10T14:39:08;16.40;99.90
15596;DHT22;7898;48.658;9.068;2023-05-10T14:41:38;16.50;99.90
15596;DHT22;7898;48.658;9.068;2023-05-10T14:44:06;16.50;99.90
15596;DHT22;7898;48.658;9.068;2023-05-10T14:46:33;16.60;99.90
15596;DHT22;7898;48.658;9.068;2023-05-10T14:49:02;16.70;99.90
15596;DHT22;7898;48.658;9.068;2023-05-10T14:51:29;16.80;99.90
15596;DHT22;7898;48.658;9.068;2023-05-10T14:53:55;16.80;99.90
15596;DHT22;7898;48.658;9.068;2023-05-10T14:56:22;16.80;99.90
15596;DHT22;7898;48.658;9.068;2023-05-10T14:58:50;16.90;99.90
15596;DHT22;7898;48.658;9.068;2023-05-10T15:01:17;16.90;99.90
15596;DHT22;7898;48.658;9.068;2023-05-10T15:03:44;16.90;99.90
15596;DHT22;7898;48.658;9.068;2023-05-10T15:06:13;17.00;99.90
15596;DHT22;7898;48.658;9.068;2023-05-10T15:08:41;17.00;99.90
15596;DHT22;7898;48.658;9.068;2023-05-10T15:11:07;17.00;99.90
15596;DHT22;7898;48.658;9.068;2023-05-10T15:13:34;16.80;99.90
15596;DHT22;7898;48.658;9.068;2023-05-10T15:16:01;16.70;99.90
15596;DHT22;7898;48.658;9.068;2023-05-10T15:18:28;16.60;99.90
15596;DHT22;7898;48.658;9.068;2023-05-10T15:20:55;16.70;99.90
15596;DHT22;7898;48.658;9.068;2023-05-10T15:23:24;16.70;99.90
15596;DHT22;7898;48.658;9.068;2023-05-10T15:25:52;16.80;99.90
15596;DHT22;7898;48.658;9.068;2023-05-10T15:28:21;16.80;99.90
15596;DHT22;7898;48.658;9.068;2023-05-10T15:30:47;16.90;99.90
15596;DHT22;7898;48.658;9.068;2023-05-10T15:33:14;16.90;99.90
15596;DHT22;7898;48.658;9.068;2023-05-10T15:35:41;17.00;99.90
15596;DHT22;7898;48.658;9.068;2023-05-10T15:38:09;17.10;99.90
15596;DHT22;7898;48.658;9.068;2023-05-10T15:40:37;17.10;99.90
15596;DHT22;7898;48.658;9.068;2023-05-10T15:43:04;17.10;99.90
15596;DHT22;7898;48.658;9.068;2023-05-10T15:45:32;17.10;99.90
15596;DHT22;7898;48.658;9.068;2023-05-10T15:47:58;16.90;99.90
15596;DHT22;7898;48.658;9.068;2023-05-10T15:50:26;16.80;99.90
15596;DHT22;7898;48.658;9.068;2023-05-10T15:52:53;16.80;99.90
15596;DHT22;7898;48.658;9.068;2023-05-10T15:55:20;16.70;99.90